Time;durP1;ratioP1;P1;durP2;ratioP2;P2;SDS_P1;SDS_P2;PMS_P1;PMS_P2;Temp;Humidity;BMP_temperature;BMP_pressure;BME280_temperature;BME280_humidity;BME280_pressure;Samples;Min_cycle;Max_cycle;Signal;HPM_P1;HPM_P2
2023/07/24 00:01:47;;;;;;;4.93;4.53;;;20.90;1.00;;;;;;5024665;28;20490;-70
2023/07/24 00:04:14;;;;;;;4.97;4.00;;;20.80;1.00;;;;;;5025928;28;20906;-70
2023/07/24 00:06:42;;;;;;;3.23;2.93;;;20.90;1.00;;;;;;5023417;28;20468;-71
2023/07/24 00:09:09;;;;;;;3.93;3.53;;;20.90;1.00;;;;;;5008675;28;20462;-71
2023/07/24 00:11:37;;;;;;;3.53;3.23;;;20.90;1.00;;;;;;5002452;28;20474;-70
2023/07/24 00:14:04;;;;;;;5.53;3.97;;;21.00;1.00;;;;;;5008616;28;20490;-70
2023/07/24 00:16:31;;;;;;;3.90;3.50;;;21.00;1.00;;;;;;5018716;28;21112;-70
2023/07/24 00:18:58;;;;;;;3.47;3.17;;;21.00;1.00;;;;;;5025803;28;20558;-78
2023/07/24 00:21:25;;;;;;;4.20;3.60;;;21.00;1.00;;;;;;5023078;28;20475;-73
2023/07/24 00:24:01;;;;;;;3.90;3.60;;;21.00;1.00;;;;;;5021533;28;21066;-72
2023/07/24 00:26:31;;;;;;;3.87;3.47;;;20.90;1.00;;;;;;5024727;28;20461;-72
2023/07/24 00:28:58;;;;;;;4.80;3.27;;;20.90;1.00;;;;;;5007131;28;20498;-70
2023/07/24 00:31:26;;;;;;;4.87;4.00;;;20.90;1.00;;;;;;5014443;28;20499;-70
2023/07/24 00:36:28;;;;;;;4.13;3.53;;;20.90;1.00;;;;;;2017834;22;20904;-75
2023/07/24 00:38:57;;;;;;;4.50;3.40;;;20.90;1.00;;;;;;5016518;28;20739;-76
2023/07/24 00:41:24;;;;;;;3.97;3.63;;;21.00;1.00;;;;;;5023340;28;20518;-75
2023/07/24 00:43:51;;;;;;;3.77;3.47;;;21.00;1.00;;;;;;5023232;28;20480;-75
2023/07/24 00:46:18;;;;;;;4.03;3.63;;;20.90;1.00;;;;;;5022787;28;20519;-76
2023/07/24 00:48:45;;;;;;;4.17;3.33;;;20.90;1.00;;;;;;5027826;28;20893;-76
2023/07/24 00:51:12;;;;;;;3.93;3.57;;;20.90;1.00;;;;;;5029421;28;20748;-76
2023/07/24 00:53:39;;;;;;;3.87;3.47;;;20.90;1.00;;;;;;5023881;28;20503;-76
2023/07/24 00:56:08;;;;;;;4.67;3.80;;;21.00;1.00;;;;;;5021164;28;20706;-76
2023/07/24 00:58:38;;;;;;;3.50;3.20;;;21.00;1.00;;;;;;5028786;28;20520;-76
2023/07/24 01:01:05;;;;;;;4.17;3.70;;;21.00;1.00;;;;;;5025790;28;20475;-76
2023/07/24 01:03:35;;;;;;;3.60;3.27;;;21.00;1.00;;;;;;5017376;28;20458;-76
2023/07/24 01:06:03;;;;;;;3.63;3.33;;;21.00;1.00;;;;;;5029317;28;20599;-75
2023/07/24 01:08:30;;;;;;;5.57;3.80;;;20.90;1.00;;;;;;5023448;28;20878;-75
2023/07/24 01:11:02;;;;;;;4.33;3.93;;;21.00;1.00;;;;;;5024510;28;20590;-76
2023/07/24 01:13:37;;;;;;;4.10;3.70;;;20.90;1.00;;;;;;5028697;28;20478;-75
2023/07/24 01:16:09;;;;;;;3.53;3.23;;;20.80;1.00;;;;;;5021240;28;20528;-75
2023/07/24 01:18:39;;;;;;;4.37;4.00;;;20.80;1.00;;;;;;5020878;28;20491;-74
2023/07/24 01:21:10;;;;;;;6.10;3.90;;;20.70;1.00;;;;;;5024954;28;20532;-75
2023/07/24 01:23:47;;;;;;;3.87;3.47;;;20.70;1.00;;;;;;5026289;28;20466;-76
2023/07/24 01:26:16;;;;;;;6.20;3.80;;;20.70;1.00;;;;;;5023726;28;20469;-75
2023/07/24 01:28:42;;;;;;;4.47;4.00;;;20.70;1.00;;;;;;5022015;28;20528;-74
2023/07/24 01:31:09;;;;;;;3.87;3.57;;;20.70;1.00;;;;;;5018329;28;20474;-75
2023/07/24 01:33:37;;;;;;;3.90;3.40;;;20.70;1.00;;;;;;5026267;28;20964;-74
2023/07/24 01:36:06;;;;;;;8.13;4.80;;;20.70;1.00;;;;;;5026703;28;20454;-75
2023/07/24 01:38:35;;;;;;;3.83;3.43;;;20.80;1.00;;;;;;5024328;28;20524;-74
2023/07/24 01:41:03;;;;;;;5.33;3.57;;;20.70;1.00;;;;;;5022996;28;20578;-75
2023/07/24 01:43:33;;;;;;;3.60;3.30;;;20.70;1.00;;;;;;5021908;28;20880;-74
2023/07/24 01:46:00;;;;;;;7.37;3.77;;;20.70;1.00;;;;;;5019740;28;21467;-76
2023/07/24 01:48:27;;;;;;;3.33;3.03;;;20.70;1.00;;;;;;5027717;28;20532;-75
2023/07/24 01:50:53;;;;;;;3.33;3.03;;;20.70;1.00;;;;;;5022086;28;20607;-76
2023/07/24 01:53:20;;;;;;;5.10;3.53;;;20.80;1.00;;;;;;5025534;28;20526;-75
2023/07/24 01:55:47;;;;;;;3.80;3.43;;;20.80;1.00;;;;;;5026560;28;20952;-76
2023/07/24 01:58:14;;;;;;;3.90;3.23;;;20.80;1.00;;;;;;5023329;28;20458;-74
2023/07/24 02:00:43;;;;;;;4.40;4.00;;;20.80;1.00;;;;;;5022320;28;20452;-76
2023/07/24 02:03:09;;;;;;;4.63;3.50;;;20.80;1.00;;;;;;5022556;28;20532;-75
2023/07/24 02:05:36;;;;;;;4.00;3.50;;;20.70;1.00;;;;;;5023642;28;20462;-75
2023/07/24 02:08:04;;;;;;;4.10;3.63;;;20.70;1.00;;;;;;5024133;28;20460;-75
2023/07/24 02:10:31;;;;;;;3.90;3.60;;;20.80;1.00;;;;;;5027643;28;20477;-75
2023/07/24 02:12:58;;;;;;;4.53;4.10;;;20.80;1.00;;;;;;5023781;28;20497;-75
2023/07/24 02:15:25;;;;;;;4.47;3.77;;;20.80;1.00;;;;;;5021995;28;21096;-75
2023/07/24 02:17:53;;;;;;;3.90;3.30;;;20.80;1.00;;;;;;5025973;28;20466;-75
2023/07/24 02:20:22;;;;;;;4.10;3.40;;;20.70;1.00;;;;;;5013350;28;20521;-75
2023/07/24 02:22:55;;;;;;;5.33;3.50;;;20.80;1.00;;;;;;5017436;28;20520;-70
2023/07/24 02:25:22;;;;;;;4.27;3.80;;;20.90;1.00;;;;;;5019886;28;20473;-70
2023/07/24 02:27:51;;;;;;;3.50;3.20;;;20.80;1.00;;;;;;4989401;28;26661;-69
2023/07/24 02:30:19;;;;;;;4.40;3.60;;;20.90;1.00;;;;;;5009241;28;20485;-69
2023/07/24 02:32:46;;;;;;;4.03;3.60;;;20.90;1.00;;;;;;5018171;28;20489;-70
2023/07/24 02:35:18;;;;;;;4.80;3.60;;;20.90;1.00;;;;;;5022067;28;20475;-69
2023/07/24 02:37:45;;;;;;;3.53;3.23;;;20.90;1.00;;;;;;5024917;28;20464;-70
2023/07/24 02:40:16;;;;;;;3.77;3.43;;;20.90;1.00;;;;;;5022502;28;21990;-72
2023/07/24 02:42:43;;;;;;;5.50;3.03;;;20.90;1.00;;;;;;5020534;28;20471;-70
2023/07/24 02:45:10;;;;;;;4.17;3.17;;;20.90;1.00;;;;;;5014983;28;21014;-70
2023/07/24 02:47:40;;;;;;;3.20;2.90;;;20.90;1.00;;;;;;5024069;28;21058;-70
2023/07/24 02:50:07;;;;;;;4.33;3.93;;;20.90;1.00;;;;;;5023041;28;21064;-74
2023/07/24 02:52:36;;;;;;;4.17;3.40;;;20.90;1.00;;;;;;5024376;28;21041;-76
2023/07/24 02:55:03;;;;;;;4.80;3.20;;;20.90;1.00;;;;;;5024947;28;20480;-76
2023/07/24 02:57:30;;;;;;;3.60;3.30;;;20.90;1.00;;;;;;5022233;28;20945;-75
2023/07/24 02:59:57;;;;;;;4.00;3.30;;;20.90;1.00;;;;;;5025486;28;20481;-76
2023/07/24 03:02:24;;;;;;;6.70;2.63;;;21.00;1.00;;;;;;5024604;28;20544;-75
2023/07/24 03:04:51;;;;;;;3.00;2.70;;;20.90;1.00;;;;;;5027473;28;20497;-74
2023/07/24 03:07:18;;;;;;;3.43;2.57;;;20.90;1.00;;;;;;5027542;28;20459;-76
2023/07/24 03:09:46;;;;;;;4.07;2.83;;;20.90;1.00;;;;;;5030490;28;20874;-75
2023/07/24 03:12:14;;;;;;;4.03;2.97;;;20.90;1.00;;;;;;5028722;28;20949;-75
2023/07/24 03:14:41;;;;;;;3.33;2.90;;;20.90;1.00;;;;;;5028947;28;20677;-75
2023/07/24 03:17:08;;;;;;;6.47;4.10;;;20.90;1.00;;;;;;5024084;28;20736;-75
2023/07/24 03:19:38;;;;;;;4.73;3.33;;;20.90;1.00;;;;;;5025390;28;20580;-75
2023/07/24 03:22:05;;;;;;;3.40;3.10;;;20.90;1.00;;;;;;5029613;28;20463;-74
2023/07/24 03:24:32;;;;;;;3.73;2.47;;;20.90;1.00;;;;;;5028035;28;20480;-74
2023/07/24 03:27:01;;;;;;;4.77;3.13;;;20.90;1.00;;;;;;5027040;28;20454;-75
2023/07/24 03:29:28;;;;;;;4.20;2.53;;;21.00;1.00;;;;;;5025672;28;20930;-76
2023/07/24 03:31:55;;;;;;;3.23;2.90;;;20.90;1.00;;;;;;5024663;28;20448;-75
2023/07/24 03:34:22;;;;;;;3.70;3.30;;;20.90;1.00;;;;;;5025891;28;20471;-76
2023/07/24 03:36:49;;;;;;;3.33;3.03;;;21.00;1.00;;;;;;5033214;28;20502;-75
2023/07/24 03:39:16;;;;;;;3.43;3.13;;;21.00;1.00;;;;;;5030167;28;20522;-76
2023/07/24 03:41:43;;;;;;;3.60;2.77;;;21.00;1.00;;;;;;5028458;28;20496;-75
2023/07/24 03:44:12;;;;;;;4.37;3.13;;;21.00;1.00;;;;;;5026983;28;20964;-76
2023/07/24 03:46:39;;;;;;;2.80;2.60;;;21.00;1.00;;;;;;5027184;28;20533;-75
2023/07/24 03:49:06;;;;;;;3.63;2.60;;;21.00;1.00;;;;;;5028577;28;20467;-76
2023/07/24 03:51:33;;;;;;;3.00;2.70;;;21.00;1.00;;;;;;5030224;28;20456;-75
2023/07/24 03:54:00;;;;;;;5.10;3.10;;;21.00;1.00;;;;;;5029902;28;20571;-75
2023/07/24 03:56:27;;;;;;;3.10;2.80;;;20.90;1.00;;;;;;5029186;28;20875;-75
2023/07/24 03:58:54;;;;;;;3.30;2.20;;;20.90;1.00;;;;;;5029591;28;20491;-76
2023/07/24 04:01:22;;;;;;;3.50;3.20;;;20.90;1.00;;;;;;5029741;28;20538;-74
2023/07/24 04:03:49;;;;;;;3.40;2.90;;;20.90;1.00;;;;;;5020712;28;20470;-75
2023/07/24 04:06:16;;;;;;;3.30;2.73;;;20.80;1.00;;;;;;5026216;28;20589;-76
2023/07/24 04:08:43;;;;;;;3.33;2.47;;;20.70;1.00;;;;;;5025017;28;20474;-75
2023/07/24 04:11:10;;;;;;;3.33;2.53;;;20.40;1.00;;;;;;5025396;28;20988;-74
2023/07/24 04:13:38;;;;;;;3.57;3.27;;;20.10;1.00;;;;;;5027964;28;20574;-75
2023/07/24 04:16:06;;;;;;;2.40;2.20;;;19.90;1.00;;;;;;5028167;28;20422;-75
2023/07/24 04:18:34;;;;;;;3.67;2.60;;;19.70;1.00;;;;;;5026744;28;20449;-75
2023/07/24 04:21:02;;;;;;;3.13;2.47;;;19.60;1.00;;;;;;5027040;28;20461;-76
2023/07/24 04:23:28;;;;;;;3.20;2.60;;;19.50;1.00;;;;;;5026610;28;20465;-76
2023/07/24 04:25:56;;;;;;;3.60;2.43;;;19.50;1.00;;;;;;5030004;28;20457;-77
2023/07/24 04:28:23;;;;;;;4.40;2.93;;;19.50;1.00;;;;;;5026594;28;20885;-75
2023/07/24 04:30:49;;;;;;;3.00;2.13;;;19.60;1.00;;;;;;5027964;28;20461;-75
2023/07/24 04:33:16;;;;;;;2.87;2.30;;;19.70;1.00;;;;;;5029829;28;20953;-75
2023/07/24 04:35:51;;;;;;;3.00;2.70;;;19.70;1.00;;;;;;5028929;28;20860;-75
2023/07/24 04:38:18;;;;;;;5.87;3.47;;;19.90;1.00;;;;;;5026787;28;20915;-75
2023/07/24 04:40:46;;;;;;;2.57;2.37;;;20.10;1.00;;;;;;5029191;28;20568;-76
2023/07/24 04:43:13;;;;;;;3.10;2.80;;;20.30;1.00;;;;;;5013062;28;20478;-74
2023/07/24 04:45:41;;;;;;;2.70;2.50;;;20.50;1.00;;;;;;5026134;28;20516;-75
2023/07/24 04:48:07;;;;;;;3.37;2.60;;;20.70;1.00;;;;;;5028610;28;20475;-74
2023/07/24 04:50:34;;;;;;;2.73;2.20;;;20.80;1.00;;;;;;5025822;28;20555;-74
2023/07/24 04:53:03;;;;;;;2.37;1.80;;;21.00;1.00;;;;;;5025388;28;20521;-75
2023/07/24 04:55:30;;;;;;;2.50;2.30;;;21.10;1.00;;;;;;5030111;28;20467;-75
2023/07/24 04:57:57;;;;;;;2.67;2.47;;;21.20;1.00;;;;;;5032514;28;20982;-74
2023/07/24 05:00:26;;;;;;;4.83;2.07;;;21.30;1.00;;;;;;5029614;28;20456;-75
2023/07/24 05:02:53;;;;;;;3.40;2.57;;;21.40;1.00;;;;;;5027737;28;20522;-73
2023/07/24 05:05:20;;;;;;;3.07;2.60;;;21.60;1.00;;;;;;5035549;28;20597;-75
2023/07/24 05:07:47;;;;;;;3.93;2.73;;;21.70;1.00;;;;;;5026882;28;20541;-76
2023/07/24 05:10:16;;;;;;;3.57;1.90;;;21.80;1.00;;;;;;5027227;28;21059;-75
2023/07/24 05:12:43;;;;;;;1.77;1.67;;;21.90;1.00;;;;;;5028021;28;20555;-75
2023/07/24 05:15:11;;;;;;;2.73;1.83;;;22.00;1.00;;;;;;5029934;28;20477;-75
2023/07/24 05:17:38;;;;;;;2.33;2.13;;;22.10;1.00;;;;;;5026206;28;20591;-75
2023/07/24 05:20:06;;;;;;;2.70;2.20;;;22.10;1.00;;;;;;5026306;28;20454;-75
2023/07/24 05:22:33;;;;;;;2.83;1.77;;;22.20;1.00;;;;;;5026833;28;21408;-75
2023/07/24 05:25:00;;;;;;;3.57;1.87;;;22.30;1.00;;;;;;5029089;28;20914;-76
2023/07/24 05:27:29;;;;;;;4.97;2.20;;;22.40;1.00;;;;;;5028752;28;20480;-75
2023/07/24 05:29:56;;;;;;;2.10;1.80;;;22.50;1.00;;;;;;5026856;28;20446;-71
2023/07/24 05:32:23;;;;;;;2.60;2.27;;;22.60;1.00;;;;;;5024004;28;20930;-70
2023/07/24 05:34:55;;;;;;;3.30;1.97;;;22.60;1.00;;;;;;5004309;28;20547;-70
2023/07/24 05:37:22;;;;;;;2.57;2.10;;;22.70;1.00;;;;;;5023919;28;20553;-71
2023/07/24 05:39:49;;;;;;;1.70;1.60;;;22.70;1.00;;;;;;4998859;28;20974;-70
2023/07/24 05:42:16;;;;;;;2.00;1.40;;;22.50;1.00;;;;;;5023404;28;20525;-71
2023/07/24 05:44:44;;;;;;;2.27;2.07;;;22.50;1.00;;;;;;5021785;28;20662;-70
2023/07/24 05:47:11;;;;;;;1.87;1.77;;;22.40;1.00;;;;;;5026010;28;20488;-70
2023/07/24 05:49:38;;;;;;;2.83;2.07;;;22.20;1.00;;;;;;5005796;28;20503;-70
2023/07/24 05:52:06;;;;;;;2.13;1.90;;;22.20;1.00;;;;;;5023709;28;20575;-70
2023/07/24 05:54:33;;;;;;;3.10;1.87;;;22.20;1.00;;;;;;5024393;28;20487;-72
2023/07/24 05:56:59;;;;;;;2.03;1.83;;;22.20;1.00;;;;;;5023764;28;20523;-70
2023/07/24 05:59:26;;;;;;;2.10;1.90;;;22.30;1.00;;;;;;5022619;28;20464;-70
2023/07/24 06:01:55;;;;;;;2.27;1.33;;;22.20;1.00;;;;;;5016244;28;20605;-70
2023/07/24 06:04:22;;;;;;;2.50;2.07;;;22.20;1.00;;;;;;5022180;28;20468;-71
2023/07/24 06:06:50;;;;;;;13.03;12.33;;;22.20;1.00;;;;;;5018673;28;20457;-70
2023/07/24 06:09:17;;;;;;;3.20;1.90;;;22.30;1.00;;;;;;5013490;28;20473;-70
2023/07/24 06:11:44;;;;;;;2.03;1.93;;;22.50;1.00;;;;;;5019923;28;20904;-69
2023/07/24 06:14:11;;;;;;;2.10;1.90;;;22.50;1.00;;;;;;5019645;28;20460;-70
2023/07/24 06:16:38;;;;;;;2.60;2.03;;;22.60;1.00;;;;;;5017874;28;20476;-69
2023/07/24 06:19:07;;;;;;;3.43;2.73;;;22.70;1.00;;;;;;5022253;28;20986;-70
2023/07/24 06:21:35;;;;;;;4.57;3.10;;;22.80;1.00;;;;;;5021580;28;20469;-70
2023/07/24 06:24:02;;;;;;;4.20;2.93;;;22.90;1.00;;;;;;5006866;28;20482;-70
2023/07/24 06:26:30;;;;;;;1.80;1.70;;;22.90;1.00;;;;;;5019968;28;20481;-71
2023/07/24 06:28:57;;;;;;;2.80;2.30;;;22.90;1.00;;;;;;5025653;28;20460;-70
2023/07/24 06:31:24;;;;;;;2.47;2.27;;;22.90;1.00;;;;;;5017532;28;20476;-70
2023/07/24 06:33:51;;;;;;;2.47;2.10;;;22.90;1.00;;;;;;5023928;28;20445;-70
2023/07/24 06:36:19;;;;;;;4.93;2.57;;;22.90;1.00;;;;;;5022829;28;20483;-70
2023/07/24 06:38:47;;;;;;;3.00;2.70;;;22.90;1.00;;;;;;5023688;28;20886;-71
2023/07/24 06:41:15;;;;;;;2.77;2.57;;;22.90;1.00;;;;;;5026343;28;21005;-70
2023/07/24 06:43:42;;;;;;;3.00;2.43;;;22.90;1.00;;;;;;5021130;28;21340;-70
2023/07/24 06:46:09;;;;;;;2.70;2.27;;;23.00;1.00;;;;;;5024283;28;20482;-72
2023/07/24 06:48:36;;;;;;;3.17;2.87;;;23.00;1.00;;;;;;5019381;28;20871;-70
2023/07/24 06:51:03;;;;;;;3.87;3.00;;;23.10;1.00;;;;;;5024886;28;20549;-69
2023/07/24 06:53:32;;;;;;;3.50;2.63;;;23.30;1.00;;;;;;5020843;28;20659;-70
2023/07/24 06:56:02;;;;;;;3.10;2.90;;;23.30;1.00;;;;;;5020568;28;20564;-70
2023/07/24 06:58:32;;;;;;;2.67;2.47;;;23.40;1.00;;;;;;5020121;28;20991;-70
2023/07/24 07:00:59;;;;;;;3.67;2.87;;;23.50;1.00;;;;;;5015928;28;20473;-71
2023/07/24 07:03:26;;;;;;;2.87;2.57;;;23.50;1.00;;;;;;5023928;28;20475;-70
2023/07/24 07:05:59;;;;;;;2.70;2.50;;;23.60;1.00;;;;;;5021152;28;20559;-70
2023/07/24 07:08:26;;;;;;;2.73;2.53;;;23.70;1.00;;;;;;5018460;28;20522;-70
2023/07/24 07:10:57;;;;;;;3.60;2.47;;;23.80;1.00;;;;;;5023096;28;20961;-70
2023/07/24 07:13:24;;;;;;;4.30;3.10;;;23.90;1.00;;;;;;5022709;28;20463;-70
2023/07/24 07:15:51;;;;;;;2.33;2.13;;;24.00;1.00;;;;;;5020868;28;20475;-70
2023/07/24 07:18:18;;;;;;;3.43;2.73;;;24.00;1.00;;;;;;5024033;28;20549;-71
2023/07/24 07:20:49;;;;;;;3.03;2.20;;;24.10;1.00;;;;;;5020564;28;20610;-71
2023/07/24 07:23:17;;;;;;;2.60;2.40;;;24.10;1.00;;;;;;5024687;28;20472;-71
2023/07/24 07:25:45;;;;;;;3.07;2.77;;;24.10;1.00;;;;;;5016785;28;20508;-68
2023/07/24 07:28:13;;;;;;;3.13;2.93;;;24.10;1.00;;;;;;5017267;28;20461;-71
2023/07/24 07:30:40;;;;;;;3.33;3.00;;;24.20;1.00;;;;;;5019792;28;20536;-70
2023/07/24 07:33:07;;;;;;;3.30;2.43;;;24.20;1.00;;;;;;5017827;28;21199;-69
2023/07/24 07:35:35;;;;;;;3.03;2.73;;;24.40;1.00;;;;;;5023646;28;20963;-71
2023/07/24 07:38:03;;;;;;;3.37;2.97;;;24.50;1.00;;;;;;5007920;28;20483;-70
2023/07/24 07:40:30;;;;;;;3.17;2.90;;;24.60;1.00;;;;;;5028025;28;20477;-71
2023/07/24 07:42:58;;;;;;;3.10;2.80;;;24.70;1.00;;;;;;5025683;28;21072;-70
2023/07/24 07:45:26;;;;;;;4.83;3.00;;;24.80;1.00;;;;;;5027164;28;20496;-70
2023/07/24 07:47:54;;;;;;;3.10;2.83;;;24.90;1.00;;;;;;5023390;28;20540;-69
2023/07/24 07:50:21;;;;;;;2.90;2.60;;;24.90;1.00;;;;;;5024212;28;20892;-70
2023/07/24 07:52:51;;;;;;;2.90;2.70;;;24.80;1.00;;;;;;5024530;28;20545;-70
2023/07/24 07:55:18;;;;;;;3.53;3.30;;;24.90;1.00;;;;;;5027732;28;20483;-70
2023/07/24 07:57:45;;;;;;;3.23;2.80;;;24.90;1.00;;;;;;5029256;28;20462;-70
2023/07/24 08:00:13;;;;;;;3.10;2.77;;;24.90;1.00;;;;;;5025032;28;20475;-70
2023/07/24 08:02:42;;;;;;;3.30;3.10;;;25.10;1.00;;;;;;5029987;28;20455;-69
2023/07/24 08:05:09;;;;;;;4.80;2.83;;;25.30;1.00;;;;;;5027197;28;20493;-71
2023/07/24 08:07:36;;;;;;;3.23;3.03;;;25.50;1.00;;;;;;5020694;28;20573;-69
2023/07/24 08:10:04;;;;;;;2.67;2.47;;;25.60;1.00;;;;;;5031890;28;20464;-69
2023/07/24 08:12:31;;;;;;;2.60;2.40;;;25.80;1.00;;;;;;5026347;28;20469;-72
2023/07/24 08:14:58;;;;;;;2.53;2.33;;;26.00;1.00;;;;;;5029435;28;20537;-69
2023/07/24 08:17:25;;;;;;;2.77;2.30;;;26.20;1.00;;;;;;5028067;28;20487;-70
2023/07/24 08:19:54;;;;;;;2.73;2.47;;;26.20;1.00;;;;;;5007818;28;20471;-70
2023/07/24 08:22:22;;;;;;;2.80;2.60;;;26.20;1.00;;;;;;5028767;28;20890;-70
2023/07/24 08:24:51;;;;;;;5.10;2.40;;;26.10;1.00;;;;;;5024299;28;20512;-70
2023/07/24 08:27:18;;;;;;;2.57;2.37;;;26.00;1.00;;;;;;5026431;28;20521;-70
2023/07/24 08:29:45;;;;;;;2.17;2.07;;;26.00;1.00;;;;;;5027171;28;21105;-70
2023/07/24 08:32:12;;;;;;;3.40;3.10;;;26.00;1.00;;;;;;5026694;28;20448;-70
2023/07/24 08:34:39;;;;;;;2.87;2.67;;;26.20;1.00;;;;;;5008840;28;20471;-71
2023/07/24 08:37:08;;;;;;;2.57;2.30;;;26.40;1.00;;;;;;5028134;28;20937;-71
2023/07/24 08:39:35;;;;;;;2.60;2.40;;;26.70;1.00;;;;;;5027902;28;20494;-71
2023/07/24 08:42:09;;;;;;;3.27;2.37;;;27.00;1.00;;;;;;5025258;28;20461;-72
2023/07/24 08:44:37;;;;;;;2.80;2.53;;;27.30;1.00;;;;;;5020419;28;20478;-70
2023/07/24 08:47:05;;;;;;;2.50;2.30;;;27.50;1.00;;;;;;5025942;28;20543;-70
2023/07/24 08:49:34;;;;;;;2.40;2.00;;;27.40;1.00;;;;;;5023967;28;20538;-69
2023/07/24 08:52:04;;;;;;;6.13;2.40;;;27.10;1.00;;;;;;5024695;28;20467;-70
2023/07/24 08:54:33;;;;;;;2.63;2.40;;;26.80;1.00;;;;;;5022802;28;20480;-72
2023/07/24 08:57:01;;;;;;;3.83;2.83;;;26.70;1.00;;;;;;5026363;28;21831;-70
2023/07/24 08:59:29;;;;;;;2.30;2.10;;;26.80;1.00;;;;;;5026207;28;20471;-71
2023/07/24 09:01:56;;;;;;;1.80;1.70;;;26.90;1.00;;;;;;5027798;28;20885;-71
2023/07/24 09:04:24;;;;;;;2.40;2.20;;;27.20;1.00;;;;;;5023980;28;20563;-70
2023/07/24 09:06:51;;;;;;;2.70;2.30;;;27.40;1.00;;;;;;5027810;28;20546;-71
2023/07/24 09:09:19;;;;;;;2.20;2.10;;;27.30;1.00;;;;;;5029469;28;20537;-71
2023/07/24 09:11:52;;;;;;;2.60;2.40;;;27.50;1.00;;;;;;5026787;28;20488;-69
2023/07/24 09:14:24;;;;;;;3.37;2.40;;;27.60;1.00;;;;;;5029552;28;20483;-71
2023/07/24 09:17:02;;;;;;;2.20;2.00;;;27.50;1.00;;;;;;5028746;28;20535;-73
2023/07/24 09:19:29;;;;;;;2.33;2.13;;;27.80;1.00;;;;;;5028210;28;20529;-72
2023/07/24 09:21:56;;;;;;;2.83;2.20;;;28.10;1.00;;;;;;5012018;28;20554;-71
2023/07/24 09:24:23;;;;;;;4.00;1.97;;;28.30;1.00;;;;;;5023195;28;20526;-71
2023/07/24 09:26:54;;;;;;;2.50;2.30;;;28.60;1.00;;;;;;5023876;28;21024;-73
2023/07/24 09:29:21;;;;;;;2.37;2.07;;;28.60;1.00;;;;;;5024216;28;20978;-71
2023/07/24 09:31:50;;;;;;;2.50;2.20;;;28.40;1.00;;;;;;5023460;28;20542;-70
2023/07/24 09:34:18;;;;;;;2.83;2.17;;;28.20;1.00;;;;;;5024085;28;21005;-71
2023/07/24 09:36:45;;;;;;;2.90;2.70;;;28.10;1.00;;;;;;5026357;28;21922;-69
2023/07/24 09:39:12;;;;;;;2.37;2.17;;;27.80;1.00;;;;;;5021783;28;20837;-71
2023/07/24 09:41:40;;;;;;;2.90;2.30;;;27.90;1.00;;;;;;5025511;28;20462;-71
2023/07/24 09:44:09;;;;;;;2.47;2.27;;;28.20;1.00;;;;;;5024042;28;20519;-70
2023/07/24 09:46:36;;;;;;;3.43;2.37;;;28.20;1.00;;;;;;5024642;28;20534;-70
2023/07/24 09:49:03;;;;;;;4.00;2.73;;;28.40;1.00;;;;;;5024907;28;20646;-70
2023/07/24 09:51:32;;;;;;;2.23;2.03;;;28.50;1.00;;;;;;5023066;28;20512;-72
2023/07/24 09:54:07;;;;;;;2.70;2.23;;;28.90;1.00;;;;;;5019776;28;20849;-70
2023/07/24 09:56:35;;;;;;;4.20;2.30;;;29.70;1.00;;;;;;5024470;28;21277;-70
2023/07/24 09:59:03;;;;;;;2.10;1.83;;;30.60;1.00;;;;;;5027300;28;20477;-70
2023/07/24 10:01:33;;;;;;;2.77;2.30;;;30.90;1.00;;;;;;5022642;28;20956;-70
2023/07/24 10:04:02;;;;;;;3.10;2.70;;;31.60;1.00;;;;;;5023714;28;22268;-69
2023/07/24 10:06:31;;;;;;;3.93;3.00;;;31.30;1.00;;;;;;5025583;28;20591;-71
2023/07/24 10:08:59;;;;;;;5.20;2.53;;;31.70;1.00;;;;;;5022353;28;20558;-71
2023/07/24 10:11:27;;;;;;;3.70;2.77;;;32.60;1.00;;;;;;5022452;28;20469;-69
2023/07/24 10:13:54;;;;;;;3.07;2.83;;;32.90;1.00;;;;;;5026106;28;20637;-70
2023/07/24 10:16:21;;;;;;;3.03;2.73;;;33.60;1.00;;;;;;5023886;28;20556;-71
2023/07/24 10:18:50;;;;;;;3.00;2.33;;;34.70;1.00;;;;;;5021714;28;20465;-71
2023/07/24 10:21:17;;;;;;;2.80;2.60;;;35.50;1.00;;;;;;5026787;28;20488;-70
2023/07/24 10:23:47;;;;;;;2.60;2.40;;;35.30;1.00;;;;;;5025466;28;20469;-71
2023/07/24 10:26:15;;;;;;;3.10;2.80;;;35.10;1.00;;;;;;5023606;28;20652;-71
2023/07/24 10:28:42;;;;;;;2.90;2.70;;;35.40;1.00;;;;;;5023549;28;20473;-71
2023/07/24 10:31:20;;;;;;;3.77;3.47;;;35.70;1.00;;;;;;5023209;28;20453;-71
2023/07/24 10:33:48;;;;;;;4.20;3.47;;;35.50;1.00;;;;;;5023710;28;20473;-72
2023/07/24 10:36:22;;;;;;;3.27;3.03;;;35.70;1.00;;;;;;5029255;28;20523;-71
2023/07/24 10:38:56;;;;;;;4.43;3.33;;;35.70;1.00;;;;;;5027359;28;20450;-72
2023/07/24 10:41:23;;;;;;;5.03;3.40;;;35.40;1.00;;;;;;5023915;28;20457;-71
2023/07/24 10:43:52;;;;;;;5.40;4.07;;;35.00;1.00;;;;;;5005276;28;20504;-72
2023/07/24 10:46:21;;;;;;;3.97;3.63;;;34.90;1.00;;;;;;5028665;28;20457;-72
2023/07/24 10:48:50;;;;;;;4.00;3.70;;;34.40;1.00;;;;;;5024105;28;20551;-71
2023/07/24 10:51:18;;;;;;;4.93;4.10;;;33.70;1.00;;;;;;5016282;28;20469;-71
2023/07/24 10:53:47;;;;;;;4.60;4.20;;;33.30;1.00;;;;;;5023295;28;20627;-71
2023/07/24 10:56:15;;;;;;;4.03;3.63;;;33.10;1.00;;;;;;5021426;28;20951;-70
2023/07/24 10:58:43;;;;;;;4.20;3.80;;;33.10;1.00;;;;;;5018932;28;20893;-71
2023/07/24 11:01:11;;;;;;;4.83;4.10;;;33.20;1.00;;;;;;5019575;28;20496;-73
2023/07/24 11:03:38;;;;;;;3.97;3.60;;;33.40;1.00;;;;;;5019048;28;20469;-71
2023/07/24 11:06:05;;;;;;;4.97;4.20;;;33.50;1.00;;;;;;5027054;28;20472;-71
2023/07/24 11:08:36;;;;;;;5.27;4.77;;;33.40;1.00;;;;;;5024785;28;20469;-71
2023/07/24 11:11:04;;;;;;;5.00;4.50;;;34.00;1.00;;;;;;5022881;28;20497;-70
2023/07/24 11:13:31;;;;;;;4.80;4.17;;;34.40;1.00;;;;;;5023537;28;20505;-71
2023/07/24 11:16:06;;;;;;;4.77;4.37;;;34.90;1.00;;;;;;5025098;28;20449;-72
2023/07/24 11:18:33;;;;;;;7.20;4.60;;;34.80;1.00;;;;;;5017784;28;20464;-70
2023/07/24 11:21:00;;;;;;;5.20;4.27;;;35.20;1.00;;;;;;5023573;28;20524;-70
2023/07/24 11:23:28;;;;;;;5.30;4.07;;;35.20;1.00;;;;;;5024322;28;20484;-71
2023/07/24 11:25:56;;;;;;;5.20;4.70;;;35.50;1.00;;;;;;5027180;28;20472;-71
2023/07/24 11:28:23;;;;;;;5.37;4.70;;;34.40;1.00;;;;;;5022473;28;20615;-72
2023/07/24 11:30:51;;;;;;;4.87;4.47;;;33.70;1.00;;;;;;5027921;28;20452;-71
2023/07/24 11:33:19;;;;;;;7.57;4.70;;;33.40;1.00;;;;;;5027958;28;20441;-71
2023/07/24 11:35:46;;;;;;;4.93;4.30;;;32.70;1.00;;;;;;5025273;28;20571;-71
2023/07/24 11:38:14;;;;;;;5.70;4.40;;;32.30;1.00;;;;;;5028262;28;20452;-73
2023/07/24 11:40:42;;;;;;;5.33;4.53;;;32.40;1.00;;;;;;5025856;28;20532;-72
2023/07/24 11:43:18;;;;;;;4.93;4.47;;;31.80;1.00;;;;;;5027035;28;20553;-72
2023/07/24 11:45:48;;;;;;;6.20;5.43;;;31.10;1.00;;;;;;5021743;28;20455;-71
2023/07/24 11:48:15;;;;;;;5.10;4.60;;;30.70;1.00;;;;;;5023710;28;20459;-71
2023/07/24 11:50:45;;;;;;;5.00;4.20;;;30.70;1.00;;;;;;5023402;28;20476;-71
2023/07/24 11:53:22;;;;;;;5.13;4.63;;;30.80;1.00;;;;;;5007147;28;20476;-72
2023/07/24 11:55:51;;;;;;;4.90;4.40;;;31.90;1.00;;;;;;5025089;28;20620;-72
2023/07/24 11:58:20;;;;;;;6.13;5.00;;;32.40;1.00;;;;;;5023796;28;20521;-72
2023/07/24 12:00:48;;;;;;;5.30;4.77;;;31.60;1.00;;;;;;5024825;28;21798;-72
2023/07/24 12:03:15;;;;;;;5.60;5.03;;;31.20;1.00;;;;;;5023265;28;20469;-70
2023/07/24 12:05:43;;;;;;;4.63;4.17;;;30.60;1.00;;;;;;5023417;28;20463;-71
2023/07/24 12:08:11;;;;;;;4.60;4.20;;;30.40;1.00;;;;;;5022868;28;20991;-70
2023/07/24 12:10:39;;;;;;;5.93;5.43;;;30.50;1.00;;;;;;5025051;28;20476;-71
2023/07/24 12:13:07;;;;;;;5.60;5.10;;;30.60;1.00;;;;;;5024312;28;20925;-71
2023/07/24 12:15:35;;;;;;;6.73;5.23;;;30.20;1.00;;;;;;5021211;28;20445;-71
2023/07/24 12:18:02;;;;;;;5.90;4.70;;;30.00;1.00;;;;;;5021252;28;20992;-71
2023/07/24 12:20:30;;;;;;;5.07;4.57;;;29.70;1.00;;;;;;5019110;28;20563;-75
2023/07/24 12:22:57;;;;;;;6.00;5.50;;;29.50;1.00;;;;;;5019972;28;20468;-71
2023/07/24 12:25:24;;;;;;;7.43;4.70;;;29.40;1.00;;;;;;5019033;28;21053;-69
2023/07/24 12:27:51;;;;;;;6.30;5.40;;;29.00;1.00;;;;;;5024083;28;20476;-70
2023/07/24 12:30:19;;;;;;;6.50;5.07;;;28.80;1.00;;;;;;5026147;28;21981;-72
2023/07/24 12:32:48;;;;;;;6.40;4.90;;;28.60;1.00;;;;;;5022715;28;20475;-70
2023/07/24 12:35:16;;;;;;;6.00;4.53;;;28.40;1.00;;;;;;5022405;28;20450;-71
2023/07/24 12:37:45;;;;;;;5.43;4.73;;;28.00;1.00;;;;;;5020883;28;20463;-70
2023/07/24 12:40:12;;;;;;;5.20;4.70;;;27.60;1.00;;;;;;5024145;28;20488;-73
2023/07/24 12:42:39;;;;;;;5.20;4.27;;;27.20;1.00;;;;;;5022467;28;20485;-71
2023/07/24 12:45:07;;;;;;;6.70;4.70;;;26.90;1.00;;;;;;5018382;28;20468;-71
2023/07/24 12:47:34;;;;;;;6.83;4.80;;;26.90;1.00;;;;;;5016735;28;20602;-70
2023/07/24 12:50:03;;;;;;;7.47;5.20;;;26.70;1.00;;;;;;5023428;28;20524;-71
2023/07/24 12:52:31;;;;;;;5.13;4.63;;;26.70;1.00;;;;;;5027116;28;20477;-74
2023/07/24 12:54:58;;;;;;;5.43;4.93;;;26.80;1.00;;;;;;5024257;28;20585;-70
2023/07/24 12:57:26;;;;;;;5.47;4.37;;;27.50;1.00;;;;;;5022589;28;20938;-71
2023/07/24 12:59:53;;;;;;;5.10;4.23;;;27.90;1.00;;;;;;5027798;28;20521;-72
2023/07/24 13:02:21;;;;;;;4.87;4.37;;;27.80;1.00;;;;;;5028134;28;20542;-71
2023/07/24 13:04:48;;;;;;;5.87;4.13;;;27.50;1.00;;;;;;5025302;28;20462;-71